sensor_id;sensor_type;location;lat;lon;timestamp;temperature;humidity
48744;DHT22;34538;48.836;9.174;2022-11-04T00:00:04;10.80;99.90
48744;DHT22;34538;48.836;9.174;2022-11-04T00:02:32;10.80;99.90
48744;DHT22;34538;48.836;9.174;2022-11-04T00:04:59;10.80;99.90
48744;DHT22;34538;48.836;9.174;2022-11-04T00:07:26;10.80;99.90
48744;DHT22;34538;48.836;9.174;2022-11-04T00:10:23;10.80;99.90
48744;DHT22;34538;48.836;9.174;2022-11-04T00:13:10;10.80;99.90
48744;DHT22;34538;48.836;9.174;2022-11-04T00:15:36;10.70;99.90
48744;DHT22;34538;48.836;9.174;2022-11-04T00:18:21;10.80;99.90
48744;DHT22;34538;48.836;9.174;2022-11-04T00:20:48;10.80;99.90
48744;DHT22;34538;48.836;9.174;2022-11-04T00:23:32;10.70;99.90
48744;DHT22;34538;48.836;9.174;2022-11-04T00:26:17;10.70;99.90
48744;DHT22;34538;48.836;9.174;2022-11-04T00:29:02;10.80;99.90
48744;DHT22;34538;48.836;9.174;2022-11-04T00:31:29;10.70;99.90
48744;DHT22;34538;48.836;9.174;2022-11-04T00:34:13;10.70;99.90
48744;DHT22;34538;48.836;9.174;2022-11-04T00:36:40;10.70;99.90
48744;DHT22;34538;48.836;9.174;2022-11-04T00:39:07;10.70;99.90
48744;DHT22;34538;48.836;9.174;2022-11-04T00:41:35;10.70;99.90
48744;DHT22;34538;48.836;9.174;2022-11-04T00:44:03;10.70;99.90
48744;DHT22;34538;48.836;9.174;2022-11-04T00:46:31;10.70;99.90
48744;DHT22;34538;48.836;9.174;2022-11-04T00:48:59;10.70;99.90
48744;DHT22;34538;48.836;9.174;2022-11-04T00:51:26;10.70;99.90
48744;DHT22;34538;48.836;9.174;2022-11-04T00:53:53;10.70;99.90
48744;DHT22;34538;48.836;9.174;2022-11-04T00:56:20;10.80;99.90
48744;DHT22;34538;48.836;9.174;2022-11-04T00:58:48;10.80;99.90
48744;DHT22;34538;48.836;9.174;2022-11-04T01:01:16;10.80;99.90
48744;DHT22;34538;48.836;9.174;2022-11-04T01:03:43;10.80;99.90
48744;DHT22;34538;48.836;9.174;2022-11-04T01:06:10;10.80;99.90
48744;DHT22;34538;48.836;9.174;2022-11-04T01:08:37;10.80;99.90
48744;DHT22;34538;48.836;9.174;2022-11-04T01:11:05;10.70;99.90
48744;DHT22;34538;48.836;9.174;2022-11-04T01:13:32;10.80;99.90
48744;DHT22;34538;48.836;9.174;2022-11-04T01:16:02;10.80;99.90
48744;DHT22;34538;48.836;9.174;2022-11-04T01:18:29;10.80;99.90
48744;DHT22;34538;48.836;9.174;2022-11-04T01:20:59;10.80;99.90
48744;DHT22;34538;48.836;9.174;2022-11-04T01:23:26;10.80;99.90
48744;DHT22;34538;48.836;9.174;2022-11-04T01:25:53;10.90;99.90
48744;DHT22;34538;48.836;9.174;2022-11-04T01:28:20;10.90;99.90
48744;DHT22;34538;48.836;9.174;2022-11-04T01:30:47;10.90;99.90
48744;DHT22;34538;48.836;9.174;2022-11-04T01:33:15;10.90;99.90
48744;DHT22;34538;48.836;9.174;2022-11-04T01:35:42;10.90;99.90
48744;DHT22;34538;48.836;9.174;2022-11-04T01:38:09;10.90;99.90
48744;DHT22;34538;48.836;9.174;2022-11-04T01:40:37;10.90;99.90
48744;DHT22;34538;48.836;9.174;2022-11-04T01:43:08;10.90;99.90
48744;DHT22;34538;48.836;9.174;2022-11-04T01:45:37;10.80;99.90
48744;DHT22;34538;48.836;9.174;2022-11-04T01:48:08;10.80;99.90
48744;DHT22;34538;48.836;9.174;2022-11-04T01:50:40;10.80;99.90
48744;DHT22;34538;48.836;9.174;2022-11-04T01:53:10;10.70;99.90
48744;DHT22;34538;48.836;9.174;2022-11-04T01:55:42;10.70;99.90
48744;DHT22;34538;48.836;9.174;2022-11-04T01:58:12;10.70;99.90
48744;DHT22;34538;48.836;9.174;2022-11-04T02:00:41;10.70;99.90
48744;DHT22;34538;48.836;9.174;2022-11-04T02:03:11;10.60;99.90
48744;DHT22;34538;48.836;9.174;2022-11-04T02:05:42;10.60;99.90
48744;DHT22;34538;48.836;9.174;2022-11-04T02:08:10;10.60;99.90
48744;DHT22;34538;48.836;9.174;2022-11-04T02:10:40;10.60;99.90
48744;DHT22;34538;48.836;9.174;2022-11-04T02:13:10;10.60;99.90
48744;DHT22;34538;48.836;9.174;2022-11-04T02:15:41;10.50;99.90
48744;DHT22;34538;48.836;9.174;2022-11-04T02:18:33;10.60;99.90
48744;DHT22;34538;48.836;9.174;2022-11-04T02:27:20;10.50;99.90
48744;DHT22;34538;48.836;9.174;2022-11-04T02:30:07;10.60;99.90
48744;DHT22;34538;48.836;9.174;2022-11-04T02:32:46;10.50;99.90
48744;DHT22;34538;48.836;9.174;2022-11-04T02:35:21;10.50;99.90
48744;DHT22;34538;48.836;9.174;2022-11-04T02:37:55;10.50;99.90
48744;DHT22;34538;48.836;9.174;2022-11-04T02:40:29;10.50;99.90
48744;DHT22;34538;48.836;9.174;2022-11-04T02:43:00;10.50;99.90
48744;DHT22;34538;48.836;9.174;2022-11-04T02:45:35;10.50;99.90
48744;DHT22;34538;48.836;9.174;2022-11-04T02:48:08;10.50;99.90
48744;DHT22;34538;48.836;9.174;2022-11-04T02:50:40;10.50;99.90
48744;DHT22;34538;48.836;9.174;2022-11-04T02:53:13;10.50;99.90
48744;DHT22;34538;48.836;9.174;2022-11-04T02:55:44;10.50;99.90
48744;DHT22;34538;48.836;9.174;2022-11-04T02:58:16;10.50;99.90
48744;DHT22;34538;48.836;9.174;2022-11-04T03:00:46;10.40;99.90
48744;DHT22;34538;48.836;9.174;2022-11-04T03:03:19;10.40;99.90
48744;DHT22;34538;48.836;9.174;2022-11-04T03:05:49;10.30;99.90
48744;DHT22;34538;48.836;9.174;2022-11-04T03:08:23;10.30;99.90
48744;DHT22;34538;48.836;9.174;2022-11-04T03:10:55;10.40;99.90
48744;DHT22;34538;48.836;9.174;2022-11-04T03:13:28;10.30;99.90
48744;DHT22;34538;48.836;9.174;2022-11-04T03:16:00;10.30;99.90
48744;DHT22;34538;48.836;9.174;2022-11-04T03:18:32;10.30;99.90
48744;DHT22;34538;48.836;9.174;2022-11-04T03:21:03;10.30;99.90
48744;DHT22;34538;48.836;9.174;2022-11-04T03:23:31;10.20;99.90
48744;DHT22;34538;48.836;9.174;2022-11-04T03:26:08;10.20;99.90
48744;DHT22;34538;48.836;9.174;2022-11-04T03:28:42;10.20;99.90
48744;DHT22;34538;48.836;9.174;2022-11-04T03:31:17;10.10;99.90
48744;DHT22;34538;48.836;9.174;2022-11-04T03:33:48;10.10;99.90
48744;DHT22;34538;48.836;9.174;2022-11-04T03:36:16;10.00;99.90
48744;DHT22;34538;48.836;9.174;2022-11-04T03:38:43;9.90;99.90
48744;DHT22;34538;48.836;9.174;2022-11-04T03:41:13;9.90;99.90
48744;DHT22;34538;48.836;9.174;2022-11-04T03:43:42;9.80;99.90
48744;DHT22;34538;48.836;9.174;2022-11-04T03:46:08;9.70;99.90
48744;DHT22;34538;48.836;9.174;2022-11-04T03:48:37;9.70;99.90
48744;DHT22;34538;48.836;9.174;2022-11-04T03:51:05;9.70;99.90
48744;DHT22;34538;48.836;9.174;2022-11-04T03:53:32;9.60;99.90
48744;DHT22;34538;48.836;9.174;2022-11-04T03:56:16;9.60;99.90
48744;DHT22;34538;48.836;9.174;2022-11-04T03:58:54;9.50;99.90
48744;DHT22;34538;48.836;9.174;2022-11-04T04:01:30;9.50;99.90
48744;DHT22;34538;48.836;9.174;2022-11-04T04:04:04;9.40;99.90
48744;DHT22;34538;48.836;9.174;2022-11-04T04:06:34;9.30;99.90
48744;DHT22;34538;48.836;9.174;2022-11-04T04:09:08;9.30;99.90
48744;DHT22;34538;48.836;9.174;2022-11-04T04:11:41;9.30;99.90
48744;DHT22;34538;48.836;9.174;2022-11-04T04:14:14;9.20;99.90
48744;DHT22;34538;48.836;9.174;2022-11-04T04:17:06;9.20;99.90
48744;DHT22;34538;48.836;9.174;2022-11-04T04:19:36;9.10;99.90
48744;DHT22;34538;48.836;9.174;2022-11-04T04:22:07;9.10;99.90
48744;DHT22;34538;48.836;9.174;2022-11-04T04:24:39;9.10;99.90
48744;DHT22;34538;48.836;9.174;2022-11-04T04:27:27;9.10;99.90
48744;DHT22;34538;48.836;9.174;2022-11-04T04:29:59;9.00;99.90
48744;DHT22;34538;48.836;9.174;2022-11-04T04:32:31;8.90;99.90
48744;DHT22;34538;48.836;9.174;2022-11-04T04:35:00;8.90;99.90
48744;DHT22;34538;48.836;9.174;2022-11-04T04:37:45;8.90;99.90
48744;DHT22;34538;48.836;9.174;2022-11-04T04:40:15;8.80;99.90
48744;DHT22;34538;48.836;9.174;2022-11-04T04:43:02;8.80;99.90
48744;DHT22;34538;48.836;9.174;2022-11-04T04:45:49;8.80;99.90
48744;DHT22;34538;48.836;9.174;2022-11-04T04:48:18;8.80;99.90
48744;DHT22;34538;48.836;9.174;2022-11-04T04:50:48;8.70;99.90
48744;DHT22;34538;48.836;9.174;2022-11-04T04:53:17;8.70;99.90
48744;DHT22;34538;48.836;9.174;2022-11-04T04:55:44;8.70;99.90
48744;DHT22;34538;48.836;9.174;2022-11-04T04:58:10;8.60;99.90
48744;DHT22;34538;48.836;9.174;2022-11-04T05:00:37;8.60;99.90
48744;DHT22;34538;48.836;9.174;2022-11-04T05:03:04;8.60;99.90
48744;DHT22;34538;48.836;9.174;2022-11-04T05:05:31;8.60;99.90
48744;DHT22;34538;48.836;9.174;2022-11-04T05:08:04;8.60;99.90
48744;DHT22;34538;48.836;9.174;2022-11-04T05:10:32;8.60;99.90
48744;DHT22;34538;48.836;9.174;2022-11-04T05:12:59;8.60;99.90
48744;DHT22;34538;48.836;9.174;2022-11-04T05:15:43;8.50;99.90
48744;DHT22;34538;48.836;9.174;2022-11-04T05:18:10;8.50;99.90
48744;DHT22;34538;48.836;9.174;2022-11-04T05:20:37;8.50;99.90
48744;DHT22;34538;48.836;9.174;2022-11-04T05:23:06;8.50;99.90
48744;DHT22;34538;48.836;9.174;2022-11-04T05:25:33;8.50;99.90
48744;DHT22;34538;48.836;9.174;2022-11-04T05:28:00;8.50;99.90
48744;DHT22;34538;48.836;9.174;2022-11-04T05:30:28;8.50;99.90
48744;DHT22;34538;48.836;9.174;2022-11-04T05:32:55;8.50;99.90
48744;DHT22;34538;48.836;9.174;2022-11-04T05:35:22;8.40;99.90
48744;DHT22;34538;48.836;9.174;2022-11-04T05:37:49;8.40;99.90
48744;DHT22;34538;48.836;9.174;2022-11-04T05:40:17;8.40;99.90
48744;DHT22;34538;48.836;9.174;2022-11-04T05:42:44;8.40;99.90
48744;DHT22;34538;48.836;9.174;2022-11-04T05:45:11;8.30;99.90
48744;DHT22;34538;48.836;9.174;2022-11-04T05:47:37;8.40;99.90
48744;DHT22;34538;48.836;9.174;2022-11-04T05:50:05;8.30;99.90
48744;DHT22;34538;48.836;9.174;2022-11-04T05:52:32;8.30;99.90
48744;DHT22;34538;48.836;9.174;2022-11-04T05:54:59;8.30;99.90
48744;DHT22;34538;48.836;9.174;2022-11-04T05:57:27;8.20;99.90
48744;DHT22;34538;48.836;9.174;2022-11-04T05:59:54;8.30;99.90
48744;DHT22;34538;48.836;9.174;2022-11-04T06:02:21;8.20;99.90
48744;DHT22;34538;48.836;9.174;2022-11-04T06:04:48;8.20;99.90
48744;DHT22;34538;48.836;9.174;2022-11-04T06:07:14;8.20;99.90
48744;DHT22;34538;48.836;9.174;2022-11-04T06:09:41;8.20;99.90
48744;DHT22;34538;48.836;9.174;2022-11-04T06:12:09;8.20;99.90
48744;DHT22;34538;48.836;9.174;2022-11-04T06:14:38;8.20;99.90
48744;DHT22;34538;48.836;9.174;2022-11-04T06:17:05;8.20;99.90
48744;DHT22;34538;48.836;9.174;2022-11-04T06:19:32;8.20;99.90
48744;DHT22;34538;48.836;9.174;2022-11-04T06:21:59;8.20;99.90
48744;DHT22;34538;48.836;9.174;2022-11-04T06:24:26;8.30;99.90
48744;DHT22;34538;48.836;9.174;2022-11-04T06:26:52;8.30;99.90
48744;DHT22;34538;48.836;9.174;2022-11-04T06:29:19;8.30;99.90
48744;DHT22;34538;48.836;9.174;2022-11-04T06:31:47;8.30;99.90
48744;DHT22;34538;48.836;9.174;2022-11-04T06:34:14;8.30;99.90
48744;DHT22;34538;48.836;9.174;2022-11-04T06:36:41;8.30;99.90
48744;DHT22;34538;48.836;9.174;2022-11-04T06:39:08;8.30;99.90
48744;DHT22;34538;48.836;9.174;2022-11-04T06:41:35;8.30;99.90
48744;DHT22;34538;48.836;9.174;2022-11-04T06:44:02;8.20;99.90
48744;DHT22;34538;48.836;9.174;2022-11-04T06:46:32;8.30;99.90
48744;DHT22;34538;48.836;9.174;2022-11-04T06:49:02;8.20;99.90
48744;DHT22;34538;48.836;9.174;2022-11-04T06:51:29;8.30;99.90
48744;DHT22;34538;48.836;9.174;2022-11-04T06:53:56;8.30;99.90
48744;DHT22;34538;48.836;9.174;2022-11-04T06:56:23;8.20;99.90
48744;DHT22;34538;48.836;9.174;2022-11-04T06:58:50;8.30;99.90
48744;DHT22;34538;48.836;9.174;2022-11-04T07:01:19;8.30;99.90
48744;DHT22;34538;48.836;9.174;2022-11-04T07:03:48;8.30;99.90
48744;DHT22;34538;48.836;9.174;2022-11-04T07:06:18;8.20;99.90
48744;DHT22;34538;48.836;9.174;2022-11-04T07:08:46;8.30;99.90
48744;DHT22;34538;48.836;9.174;2022-11-04T07:11:13;8.30;99.90
48744;DHT22;34538;48.836;9.174;2022-11-04T07:13:40;8.30;99.90
48744;DHT22;34538;48.836;9.174;2022-11-04T07:16:08;8.30;99.90
48744;DHT22;34538;48.836;9.174;2022-11-04T07:18:35;8.30;99.90
48744;DHT22;34538;48.836;9.174;2022-11-04T07:21:03;8.40;99.90
48744;DHT22;34538;48.836;9.174;2022-11-04T07:23:31;8.40;99.90
48744;DHT22;34538;48.836;9.174;2022-11-04T07:25:59;8.50;99.90
48744;DHT22;34538;48.836;9.174;2022-11-04T07:28:26;8.50;99.90
48744;DHT22;34538;48.836;9.174;2022-11-04T07:30:54;8.50;99.90
48744;DHT22;34538;48.836;9.174;2022-11-04T07:33:21;8.50;99.90
48744;DHT22;34538;48.836;9.174;2022-11-04T07:35:48;8.50;99.90
48744;DHT22;34538;48.836;9.174;2022-11-04T07:38:15;8.60;99.90
48744;DHT22;34538;48.836;9.174;2022-11-04T07:40:43;8.60;99.90
48744;DHT22;34538;48.836;9.174;2022-11-04T07:43:10;8.70;99.90
48744;DHT22;34538;48.836;9.174;2022-11-04T07:45:37;8.80;99.90
48744;DHT22;34538;48.836;9.174;2022-11-04T07:48:04;8.80;99.90
48744;DHT22;34538;48.836;9.174;2022-11-04T07:50:31;8.80;99.90
48744;DHT22;34538;48.836;9.174;2022-11-04T07:52:58;8.90;99.90
48744;DHT22;34538;48.836;9.174;2022-11-04T07:55:25;9.00;99.90
48744;DHT22;34538;48.836;9.174;2022-11-04T07:57:54;9.00;99.90
48744;DHT22;34538;48.836;9.174;2022-11-04T08:00:21;9.10;99.90
48744;DHT22;34538;48.836;9.174;2022-11-04T08:02:48;9.20;99.90
48744;DHT22;34538;48.836;9.174;2022-11-04T08:05:15;9.30;99.90
48744;DHT22;34538;48.836;9.174;2022-11-04T08:07:42;9.30;99.90
48744;DHT22;34538;48.836;9.174;2022-11-04T08:10:09;9.40;99.90
48744;DHT22;34538;48.836;9.174;2022-11-04T08:12:36;9.40;99.90
48744;DHT22;34538;48.836;9.174;2022-11-04T08:15:06;9.50;99.90
48744;DHT22;34538;48.836;9.174;2022-11-04T08:17:33;9.60;99.90
48744;DHT22;34538;48.836;9.174;2022-11-04T08:20:00;9.60;99.90
48744;DHT22;34538;48.836;9.174;2022-11-04T08:22:27;9.70;99.90
48744;DHT22;34538;48.836;9.174;2022-11-04T08:24:54;9.70;99.90
48744;DHT22;34538;48.836;9.174;2022-11-04T08:27:21;9.80;99.90
48744;DHT22;34538;48.836;9.174;2022-11-04T08:29:48;9.90;99.90
48744;DHT22;34538;48.836;9.174;2022-11-04T08:32:17;10.00;99.90
48744;DHT22;34538;48.836;9.174;2022-11-04T08:34:44;10.10;99.90
48744;DHT22;34538;48.836;9.174;2022-11-04T08:37:12;10.20;99.90
48744;DHT22;34538;48.836;9.174;2022-11-04T08:39:39;10.30;99.90
48744;DHT22;34538;48.836;9.174;2022-11-04T08:42:07;10.40;99.90
48744;DHT22;34538;48.836;9.174;2022-11-04T08:44:34;10.40;99.90
48744;DHT22;34538;48.836;9.174;2022-11-04T08:47:02;10.50;99.90
48744;DHT22;34538;48.836;9.174;2022-11-04T08:49:30;10.60;99.90
48744;DHT22;34538;48.836;9.174;2022-11-04T08:51:57;10.60;99.90
48744;DHT22;34538;48.836;9.174;2022-11-04T08:54:26;10.70;99.90
48744;DHT22;34538;48.836;9.174;2022-11-04T08:56:54;10.80;99.90
48744;DHT22;34538;48.836;9.174;2022-11-04T08:59:21;10.80;99.90
48744;DHT22;34538;48.836;9.174;2022-11-04T09:01:49;10.90;99.90
48744;DHT22;34538;48.836;9.174;2022-11-04T09:04:16;10.90;99.90
48744;DHT22;34538;48.836;9.174;2022-11-04T09:06:45;11.00;99.90
48744;DHT22;34538;48.836;9.174;2022-11-04T09:09:14;11.10;99.90
48744;DHT22;34538;48.836;9.174;2022-11-04T09:11:43;11.10;99.90
48744;DHT22;34538;48.836;9.174;2022-11-04T09:14:11;11.20;99.90
48744;DHT22;34538;48.836;9.174;2022-11-04T09:16:39;11.20;99.90
48744;DHT22;34538;48.836;9.174;2022-11-04T09:19:06;11.30;99.90
48744;DHT22;34538;48.836;9.174;2022-11-04T09:21:33;11.30;99.90
48744;DHT22;34538;48.836;9.174;2022-11-04T09:24:02;11.30;99.90
48744;DHT22;34538;48.836;9.174;2022-11-04T09:26:30;11.30;99.90
48744;DHT22;34538;48.836;9.174;2022-11-04T09:28:58;11.40;99.90
48744;DHT22;34538;48.836;9.174;2022-11-04T09:31:27;11.40;99.90
48744;DHT22;34538;48.836;9.174;2022-11-04T09:33:55;11.40;99.90
48744;DHT22;34538;48.836;9.174;2022-11-04T09:36:22;11.40;99.90
48744;DHT22;34538;48.836;9.174;2022-11-04T09:38:49;11.50;99.90
48744;DHT22;34538;48.836;9.174;2022-11-04T09:41:41;11.50;99.90
48744;DHT22;34538;48.836;9.174;2022-11-04T09:44:21;11.50;99.90
48744;DHT22;34538;48.836;9.174;2022-11-04T09:46:51;11.60;99.90
48744;DHT22;34538;48.836;9.174;2022-11-04T09:49:18;11.60;99.90
48744;DHT22;34538;48.836;9.174;2022-11-04T09:51:46;11.60;99.90
48744;DHT22;34538;48.836;9.174;2022-11-04T09:54:19;11.70;99.90
48744;DHT22;34538;48.836;9.174;2022-11-04T09:56:50;11.70;99.90
48744;DHT22;34538;48.836;9.174;2022-11-04T09:59:27;11.80;99.90
48744;DHT22;34538;48.836;9.174;2022-11-04T10:02:05;11.90;99.90
48744;DHT22;34538;48.836;9.174;2022-11-04T10:04:49;11.90;99.90
48744;DHT22;34538;48.836;9.174;2022-11-04T10:07:32;11.90;99.90
48744;DHT22;34538;48.836;9.174;2022-11-04T10:10:09;12.00;99.90
48744;DHT22;34538;48.836;9.174;2022-11-04T10:12:58;12.00;99.90
48744;DHT22;34538;48.836;9.174;2022-11-04T10:18:29;12.10;99.90
48744;DHT22;34538;48.836;9.174;2022-11-04T10:21:08;12.20;99.90
48744;DHT22;34538;48.836;9.174;2022-11-04T10:23:42;12.20;99.90
48744;DHT22;34538;48.836;9.174;2022-11-04T10:26:14;12.20;99.90
48744;DHT22;34538;48.836;9.174;2022-11-04T10:28:47;12.20;99.90
48744;DHT22;34538;48.836;9.174;2022-11-04T10:31:17;12.20;99.90
48744;DHT22;34538;48.836;9.174;2022-11-04T10:33:47;12.20;99.90
48744;DHT22;34538;48.836;9.174;2022-11-04T10:36:18;12.30;99.90
48744;DHT22;34538;48.836;9.174;2022-11-04T10:38:47;12.20;99.90
48744;DHT22;34538;48.836;9.174;2022-11-04T10:41:24;12.30;99.90
48744;DHT22;34538;48.836;9.174;2022-11-04T10:43:55;12.30;99.90
48744;DHT22;34538;48.836;9.174;2022-11-04T10:46:41;12.40;99.90
48744;DHT22;34538;48.836;9.174;2022-11-04T10:49:44;12.40;99.90
48744;DHT22;34538;48.836;9.174;2022-11-04T10:52:15;12.50;99.90
48744;DHT22;34538;48.836;9.174;2022-11-04T10:54:43;12.60;99.90
48744;DHT22;34538;48.836;9.174;2022-11-04T10:57:11;12.60;99.90
48744;DHT22;34538;48.836;9.174;2022-11-04T10:59:48;12.70;99.90
48744;DHT22;34538;48.836;9.174;2022-11-04T11:02:16;12.80;99.90
48744;DHT22;34538;48.836;9.174;2022-11-04T11:04:43;12.80;99.90
48744;DHT22;34538;48.836;9.174;2022-11-04T11:07:13;12.90;99.90
48744;DHT22;34538;48.836;9.174;2022-11-04T11:09:49;12.90;99.90
48744;DHT22;34538;48.836;9.174;2022-11-04T11:12:19;12.90;99.90
48744;DHT22;34538;48.836;9.174;2022-11-04T11:14:52;12.90;99.90
48744;DHT22;34538;48.836;9.174;2022-11-04T11:17:22;12.90;99.90
48744;DHT22;34538;48.836;9.174;2022-11-04T11:19:53;12.90;99.90
48744;DHT22;34538;48.836;9.174;2022-11-04T11:22:35;12.90;99.90
48744;DHT22;34538;48.836;9.174;2022-11-04T11:25:21;12.90;99.90
48744;DHT22;34538;48.836;9.174;2022-11-04T11:27:50;12.80;99.90
48744;DHT22;34538;48.836;9.174;2022-11-04T11:30:28;12.80;99.90
48744;DHT22;34538;48.836;9.174;2022-11-04T11:33:01;12.80;99.90
48744;DHT22;34538;48.836;9.174;2022-11-04T11:35:32;12.80;99.90
48744;DHT22;34538;48.836;9.174;2022-11-04T11:38:02;12.80;99.90
48744;DHT22;34538;48.836;9.174;2022-11-04T11:40:36;12.90;99.90
48744;DHT22;34538;48.836;9.174;2022-11-04T11:43:03;12.90;99.90
48744;DHT22;34538;48.836;9.174;2022-11-04T11:45:32;12.90;99.90
48744;DHT22;34538;48.836;9.174;2022-11-04T11:47:59;13.00;99.90
48744;DHT22;34538;48.836;9.174;2022-11-04T11:50:27;13.00;99.90
48744;DHT22;34538;48.836;9.174;2022-11-04T11:53:13;13.10;99.90
48744;DHT22;34538;48.836;9.174;2022-11-04T11:55:49;13.10;99.90
48744;DHT22;34538;48.836;9.174;2022-11-04T11:58:24;13.10;99.90
48744;DHT22;34538;48.836;9.174;2022-11-04T12:00:58;13.00;99.90
48744;DHT22;34538;48.836;9.174;2022-11-04T12:03:30;13.10;99.90
48744;DHT22;34538;48.836;9.174;2022-11-04T12:06:12;13.00;99.90
48744;DHT22;34538;48.836;9.174;2022-11-04T12:09:01;12.90;99.90
48744;DHT22;34538;48.836;9.174;2022-11-04T12:11:36;12.90;99.90
48744;DHT22;34538;48.836;9.174;2022-11-04T12:14:10;12.90;99.90
48744;DHT22;34538;48.836;9.174;2022-11-04T12:16:50;12.80;99.90
48744;DHT22;34538;48.836;9.174;2022-11-04T12:19:33;12.90;99.90
48744;DHT22;34538;48.836;9.174;2022-11-04T12:22:11;12.90;99.90
48744;DHT22;34538;48.836;9.174;2022-11-04T12:24:47;13.00;99.90
48744;DHT22;34538;48.836;9.174;2022-11-04T12:27:23;13.00;99.90
48744;DHT22;34538;48.836;9.174;2022-11-04T12:30:03;13.00;99.90
48744;DHT22;34538;48.836;9.174;2022-11-04T12:32:40;13.00;99.90
48744;DHT22;34538;48.836;9.174;2022-11-04T12:35:24;13.00;99.90
48744;DHT22;34538;48.836;9.174;2022-11-04T12:38:11;13.00;99.90
48744;DHT22;34538;48.836;9.174;2022-11-04T12:40:44;13.10;99.90
48744;DHT22;34538;48.836;9.174;2022-11-04T12:43:19;13.10;99.90
48744;DHT22;34538;48.836;9.174;2022-11-04T12:45:59;13.10;99.90
48744;DHT22;34538;48.836;9.174;2022-11-04T12:48:48;13.20;99.90
48744;DHT22;34538;48.836;9.174;2022-11-04T12:51:24;13.30;99.90
48744;DHT22;34538;48.836;9.174;2022-11-04T12:54:04;13.30;99.90
48744;DHT22;34538;48.836;9.174;2022-11-04T12:56:36;13.30;99.90
48744;DHT22;34538;48.836;9.174;2022-11-04T12:59:19;13.30;99.90
48744;DHT22;34538;48.836;9.174;2022-11-04T13:01:51;13.30;99.90
48744;DHT22;34538;48.836;9.174;2022-11-04T13:04:22;13.40;99.90
48744;DHT22;34538;48.836;9.174;2022-11-04T13:06:53;13.40;99.90
48744;DHT22;34538;48.836;9.174;2022-11-04T13:09:29;13.40;99.90
48744;DHT22;34538;48.836;9.174;2022-11-04T13:12:02;13.40;99.90
48744;DHT22;34538;48.836;9.174;2022-11-04T13:14:34;13.40;99.90
48744;DHT22;34538;48.836;9.174;2022-11-04T13:17:05;13.40;99.90
48744;DHT22;34538;48.836;9.174;2022-11-04T13:19:38;13.40;99.90
48744;DHT22;34538;48.836;9.174;2022-11-04T13:22:08;13.40;99.90
48744;DHT22;34538;48.836;9.174;2022-11-04T13:24:39;13.40;99.90
48744;DHT22;34538;48.836;9.174;2022-11-04T13:27:16;13.40;99.90
48744;DHT22;34538;48.836;9.174;2022-11-04T13:29:44;13.40;99.90
48744;DHT22;34538;48.836;9.174;2022-11-04T13:32:17;13.40;99.90
48744;DHT22;34538;48.836;9.174;2022-11-04T13:34:55;13.30;99.90
48744;DHT22;34538;48.836;9.174;2022-11-04T13:37:26;13.30;99.90
48744;DHT22;34538;48.836;9.174;2022-11-04T13:39:56;13.30;99.90
48744;DHT22;34538;48.836;9.174;2022-11-04T13:42:47;13.30;99.90
48744;DHT22;34538;48.836;9.174;2022-11-04T13:45:17;13.20;99.90
48744;DHT22;34538;48.836;9.174;2022-11-04T13:47:47;13.10;99.90
48744;DHT22;34538;48.836;9.174;2022-11-04T13:50:32;13.00;99.90
48744;DHT22;34538;48.836;9.174;2022-11-04T13:53:02;12.90;99.90
48744;DHT22;34538;48.836;9.174;2022-11-04T13:55:29;12.70;99.90
48744;DHT22;34538;48.836;9.174;2022-11-04T13:57:58;12.50;99.90
48744;DHT22;34538;48.836;9.174;2022-11-04T14:00:27;12.40;99.90
48744;DHT22;34538;48.836;9.174;2022-11-04T14:02:55;12.20;99.90
48744;DHT22;34538;48.836;9.174;2022-11-04T14:08:22;12.00;99.90
48744;DHT22;34538;48.836;9.174;2022-11-04T14:11:05;11.60;99.90
48744;DHT22;34538;48.836;9.174;2022-11-04T14:16:40;11.40;99.90
48744;DHT22;34538;48.836;9.174;2022-11-04T14:22:20;11.20;99.90
48744;DHT22;34538;48.836;9.174;2022-11-04T14:24:55;11.10;99.90
48744;DHT22;34538;48.836;9.174;2022-11-04T14:27:25;11.00;99.90
48744;DHT22;34538;48.836;9.174;2022-11-04T14:29:54;11.00;99.90
48744;DHT22;34538;48.836;9.174;2022-11-04T14:32:24;10.90;99.90
48744;DHT22;34538;48.836;9.174;2022-11-04T14:35:00;10.90;99.90
48744;DHT22;34538;48.836;9.174;2022-11-04T14:37:30;10.90;99.90
48744;DHT22;34538;48.836;9.174;2022-11-04T14:40:02;10.90;99.90
48744;DHT22;34538;48.836;9.174;2022-11-04T14:42:48;10.90;99.90
48744;DHT22;34538;48.836;9.174;2022-11-04T14:45:20;10.90;99.90
48744;DHT22;34538;48.836;9.174;2022-11-04T14:47:51;10.90;99.90
48744;DHT22;34538;48.836;9.174;2022-11-04T14:50:22;10.90;99.90
48744;DHT22;34538;48.836;9.174;2022-11-04T14:52:53;10.90;99.90
48744;DHT22;34538;48.836;9.174;2022-11-04T14:55:22;11.00;99.90
48744;DHT22;34538;48.836;9.174;2022-11-04T14:57:51;11.00;99.90
48744;DHT22;34538;48.836;9.174;2022-11-04T15:00:27;11.00;99.90
48744;DHT22;34538;48.836;9.174;2022-11-04T15:03:04;11.00;99.90
48744;DHT22;34538;48.836;9.174;2022-11-04T15:05:32;11.00;99.90
48744;DHT22;34538;48.836;9.174;2022-11-04T15:08:01;11.10;99.90
48744;DHT22;34538;48.836;9.174;2022-11-04T15:10:30;11.10;99.90
48744;DHT22;34538;48.836;9.174;2022-11-04T15:13:00;11.10;99.90
48744;DHT22;34538;48.836;9.174;2022-11-04T15:15:30;11.10;99.90
48744;DHT22;34538;48.836;9.174;2022-11-04T15:18:04;11.10;99.90
48744;DHT22;34538;48.836;9.174;2022-11-04T15:20:34;11.00;99.90
48744;DHT22;34538;48.836;9.174;2022-11-04T15:23:03;11.00;99.90
48744;DHT22;34538;48.836;9.174;2022-11-04T15:25:34;10.90;99.90
48744;DHT22;34538;48.836;9.174;2022-11-04T15:28:01;11.00;99.90
48744;DHT22;34538;48.836;9.174;2022-11-04T15:30:29;10.90;99.90
48744;DHT22;34538;48.836;9.174;2022-11-04T15:32:58;10.80;99.90
48744;DHT22;34538;48.836;9.174;2022-11-04T15:35:27;10.80;99.90
48744;DHT22;34538;48.836;9.174;2022-11-04T15:37:54;10.80;99.90
48744;DHT22;34538;48.836;9.174;2022-11-04T15:40:23;10.80;99.90
48744;DHT22;34538;48.836;9.174;2022-11-04T15:42:54;10.70;99.90
48744;DHT22;34538;48.836;9.174;2022-11-04T15:45:38;10.70;99.90
48744;DHT22;34538;48.836;9.174;2022-11-04T15:48:29;10.70;99.90
48744;DHT22;34538;48.836;9.174;2022-11-04T15:51:10;10.60;99.90
48744;DHT22;34538;48.836;9.174;2022-11-04T15:53:50;10.60;99.90
48744;DHT22;34538;48.836;9.174;2022-11-04T15:56:18;10.60;99.90
48744;DHT22;34538;48.836;9.174;2022-11-04T15:58:48;10.60;99.90
48744;DHT22;34538;48.836;9.174;2022-11-04T16:01:17;10.60;99.90
48744;DHT22;34538;48.836;9.174;2022-11-04T16:03:49;10.50;99.90
48744;DHT22;34538;48.836;9.174;2022-11-04T16:06:16;10.50;99.90
48744;DHT22;34538;48.836;9.174;2022-11-04T16:08:59;10.50;99.90
48744;DHT22;34538;48.836;9.174;2022-11-04T16:11:26;10.50;99.90
48744;DHT22;34538;48.836;9.174;2022-11-04T16:14:13;10.40;99.90
48744;DHT22;34538;48.836;9.174;2022-11-04T16:16:45;10.40;99.90
48744;DHT22;34538;48.836;9.174;2022-11-04T16:19:17;10.40;99.90